sensor_id;sensor_type;location;lat;lon;timestamp;P1;durP1;ratioP1;P2;durP2;ratioP2
5730;SDS011;2890;51.950;7.668;2023-05-07T00:00:45;8.90;;;8.30;;
5730;SDS011;2890;51.950;7.668;2023-05-07T00:03:12;8.77;;;8.07;;
5730;SDS011;2890;51.950;7.668;2023-05-07T00:05:39;8.67;;;7.93;;
5730;SDS011;2890;51.950;7.668;2023-05-07T00:08:06;8.30;;;7.70;;
5730;SDS011;2890;51.950;7.668;2023-05-07T00:10:32;7.80;;;7.30;;
5730;SDS011;2890;51.950;7.668;2023-05-07T00:13:00;9.20;;;8.40;;
5730;SDS011;2890;51.950;7.668;2023-05-07T00:15:27;9.03;;;8.33;;
5730;SDS011;2890;51.950;7.668;2023-05-07T00:17:53;8.00;;;7.40;;
5730;SDS011;2890;51.950;7.668;2023-05-07T00:20:20;9.40;;;6.90;;
5730;SDS011;2890;51.950;7.668;2023-05-07T00:22:46;8.70;;;8.10;;
5730;SDS011;2890;51.950;7.668;2023-05-07T00:25:13;8.80;;;8.20;;
5730;SDS011;2890;51.950;7.668;2023-05-07T00:27:39;8.50;;;7.83;;
5730;SDS011;2890;51.950;7.668;2023-05-07T00:30:07;9.63;;;8.10;;
5730;SDS011;2890;51.950;7.668;2023-05-07T00:32:34;8.53;;;7.70;;
5730;SDS011;2890;51.950;7.668;2023-05-07T00:35:01;9.30;;;8.33;;
5730;SDS011;2890;51.950;7.668;2023-05-07T00:37:28;8.10;;;7.60;;
5730;SDS011;2890;51.950;7.668;2023-05-07T00:39:55;9.03;;;8.30;;
5730;SDS011;2890;51.950;7.668;2023-05-07T00:42:21;8.73;;;8.03;;
5730;SDS011;2890;51.950;7.668;2023-05-07T00:44:49;7.90;;;7.23;;
5730;SDS011;2890;51.950;7.668;2023-05-07T00:47:17;8.27;;;7.67;;
5730;SDS011;2890;51.950;7.668;2023-05-07T00:49:44;9.50;;;8.70;;
5730;SDS011;2890;51.950;7.668;2023-05-07T00:52:11;9.20;;;8.57;;
5730;SDS011;2890;51.950;7.668;2023-05-07T00:54:40;10.20;;;8.70;;
5730;SDS011;2890;51.950;7.668;2023-05-07T00:57:07;11.23;;;9.00;;
5730;SDS011;2890;51.950;7.668;2023-05-07T00:59:36;10.47;;;9.60;;
5730;SDS011;2890;51.950;7.668;2023-05-07T01:02:02;9.13;;;8.43;;
5730;SDS011;2890;51.950;7.668;2023-05-07T01:04:30;11.03;;;10.13;;
5730;SDS011;2890;51.950;7.668;2023-05-07T01:06:57;12.43;;;11.23;;
5730;SDS011;2890;51.950;7.668;2023-05-07T01:09:24;11.80;;;10.80;;
5730;SDS011;2890;51.950;7.668;2023-05-07T01:11:51;13.13;;;11.80;;
5730;SDS011;2890;51.950;7.668;2023-05-07T01:14:18;11.53;;;10.53;;
5730;SDS011;2890;51.950;7.668;2023-05-07T01:16:45;11.83;;;10.77;;
5730;SDS011;2890;51.950;7.668;2023-05-07T01:19:12;12.80;;;11.80;;
5730;SDS011;2890;51.950;7.668;2023-05-07T01:21:42;14.43;;;13.17;;
5730;SDS011;2890;51.950;7.668;2023-05-07T01:24:12;14.53;;;12.93;;
5730;SDS011;2890;51.950;7.668;2023-05-07T01:26:39;16.30;;;13.80;;
5730;SDS011;2890;51.950;7.668;2023-05-07T01:29:05;15.23;;;12.93;;
5730;SDS011;2890;51.950;7.668;2023-05-07T01:31:32;19.30;;;13.40;;
5730;SDS011;2890;51.950;7.668;2023-05-07T01:33:59;15.80;;;14.10;;
5730;SDS011;2890;51.950;7.668;2023-05-07T01:36:27;16.83;;;15.13;;
5730;SDS011;2890;51.950;7.668;2023-05-07T01:38:55;15.43;;;13.90;;
5730;SDS011;2890;51.950;7.668;2023-05-07T01:41:24;15.90;;;14.20;;
5730;SDS011;2890;51.950;7.668;2023-05-07T01:43:51;18.27;;;16.43;;
5730;SDS011;2890;51.950;7.668;2023-05-07T01:46:18;18.80;;;14.90;;
5730;SDS011;2890;51.950;7.668;2023-05-07T01:48:45;16.40;;;14.90;;
5730;SDS011;2890;51.950;7.668;2023-05-07T01:51:12;18.73;;;16.40;;
5730;SDS011;2890;51.950;7.668;2023-05-07T01:53:39;21.30;;;16.23;;
5730;SDS011;2890;51.950;7.668;2023-05-07T01:56:05;18.50;;;16.73;;
5730;SDS011;2890;51.950;7.668;2023-05-07T01:58:34;18.50;;;16.60;;
5730;SDS011;2890;51.950;7.668;2023-05-07T02:01:00;19.00;;;17.00;;
5730;SDS011;2890;51.950;7.668;2023-05-07T02:03:27;19.07;;;17.17;;
5730;SDS011;2890;51.950;7.668;2023-05-07T02:05:53;21.40;;;17.70;;
5730;SDS011;2890;51.950;7.668;2023-05-07T02:08:20;20.97;;;18.87;;
5730;SDS011;2890;51.950;7.668;2023-05-07T02:10:46;19.33;;;17.53;;
5730;SDS011;2890;51.950;7.668;2023-05-07T02:13:13;22.27;;;19.60;;
5730;SDS011;2890;51.950;7.668;2023-05-07T02:15:40;22.37;;;19.97;;
5730;SDS011;2890;51.950;7.668;2023-05-07T02:18:07;23.10;;;19.60;;
5730;SDS011;2890;51.950;7.668;2023-05-07T02:20:34;22.60;;;20.27;;
5730;SDS011;2890;51.950;7.668;2023-05-07T02:23:01;27.33;;;20.33;;
5730;SDS011;2890;51.950;7.668;2023-05-07T02:25:27;24.00;;;20.47;;
5730;SDS011;2890;51.950;7.668;2023-05-07T02:27:54;24.70;;;21.73;;
5730;SDS011;2890;51.950;7.668;2023-05-07T02:30:20;23.27;;;20.83;;
5730;SDS011;2890;51.950;7.668;2023-05-07T02:32:48;23.57;;;21.33;;
5730;SDS011;2890;51.950;7.668;2023-05-07T02:35:15;24.40;;;21.03;;
5730;SDS011;2890;51.950;7.668;2023-05-07T02:37:41;27.00;;;22.30;;
5730;SDS011;2890;51.950;7.668;2023-05-07T02:40:08;24.03;;;21.47;;
5730;SDS011;2890;51.950;7.668;2023-05-07T02:42:36;25.33;;;22.67;;
5730;SDS011;2890;51.950;7.668;2023-05-07T02:45:02;27.97;;;22.90;;
5730;SDS011;2890;51.950;7.668;2023-05-07T02:47:29;25.93;;;22.47;;
5730;SDS011;2890;51.950;7.668;2023-05-07T02:49:57;28.20;;;22.80;;
5730;SDS011;2890;51.950;7.668;2023-05-07T02:52:24;24.83;;;22.23;;
5730;SDS011;2890;51.950;7.668;2023-05-07T02:54:50;24.90;;;22.30;;
5730;SDS011;2890;51.950;7.668;2023-05-07T02:57:16;24.30;;;21.80;;
5730;SDS011;2890;51.950;7.668;2023-05-07T02:59:43;28.23;;;22.00;;
5730;SDS011;2890;51.950;7.668;2023-05-07T03:02:09;24.87;;;22.23;;
5730;SDS011;2890;51.950;7.668;2023-05-07T03:04:36;25.13;;;21.93;;
5730;SDS011;2890;51.950;7.668;2023-05-07T03:07:04;23.83;;;21.27;;
5730;SDS011;2890;51.950;7.668;2023-05-07T03:09:30;23.67;;;21.17;;
5730;SDS011;2890;51.950;7.668;2023-05-07T03:11:57;23.50;;;21.10;;
5730;SDS011;2890;51.950;7.668;2023-05-07T03:14:23;24.83;;;22.23;;
5730;SDS011;2890;51.950;7.668;2023-05-07T03:16:50;24.13;;;21.37;;
5730;SDS011;2890;51.950;7.668;2023-05-07T03:19:16;23.97;;;21.50;;
5730;SDS011;2890;51.950;7.668;2023-05-07T03:21:43;24.43;;;21.83;;
5730;SDS011;2890;51.950;7.668;2023-05-07T03:24:11;25.00;;;22.30;;
5730;SDS011;2890;51.950;7.668;2023-05-07T03:26:37;23.87;;;21.50;;
5730;SDS011;2890;51.950;7.668;2023-05-07T03:29:03;23.53;;;21.13;;
5730;SDS011;2890;51.950;7.668;2023-05-07T03:31:30;28.40;;;22.20;;
5730;SDS011;2890;51.950;7.668;2023-05-07T03:33:57;24.07;;;21.57;;
5730;SDS011;2890;51.950;7.668;2023-05-07T03:36:23;26.47;;;22.40;;
5730;SDS011;2890;51.950;7.668;2023-05-07T03:38:51;26.00;;;22.40;;
5730;SDS011;2890;51.950;7.668;2023-05-07T03:41:19;22.43;;;20.23;;
5730;SDS011;2890;51.950;7.668;2023-05-07T03:43:46;24.60;;;21.93;;
5730;SDS011;2890;51.950;7.668;2023-05-07T03:46:12;25.70;;;22.40;;
5730;SDS011;2890;51.950;7.668;2023-05-07T03:48:39;30.50;;;22.37;;
5730;SDS011;2890;51.950;7.668;2023-05-07T03:51:05;25.43;;;21.63;;
5730;SDS011;2890;51.950;7.668;2023-05-07T03:53:32;24.27;;;21.80;;
5730;SDS011;2890;51.950;7.668;2023-05-07T03:55:58;24.17;;;20.80;;
5730;SDS011;2890;51.950;7.668;2023-05-07T03:58:26;24.63;;;22.00;;
5730;SDS011;2890;51.950;7.668;2023-05-07T04:00:52;26.97;;;22.87;;
5730;SDS011;2890;51.950;7.668;2023-05-07T04:03:19;24.43;;;21.93;;
5730;SDS011;2890;51.950;7.668;2023-05-07T04:05:45;27.23;;;22.63;;
5730;SDS011;2890;51.950;7.668;2023-05-07T04:08:12;24.60;;;22.10;;
5730;SDS011;2890;51.950;7.668;2023-05-07T04:10:38;24.20;;;21.60;;
5730;SDS011;2890;51.950;7.668;2023-05-07T04:13:05;25.33;;;21.77;;
5730;SDS011;2890;51.950;7.668;2023-05-07T04:15:33;24.83;;;22.23;;
5730;SDS011;2890;51.950;7.668;2023-05-07T04:17:59;25.80;;;23.10;;
5730;SDS011;2890;51.950;7.668;2023-05-07T04:20:26;25.13;;;22.30;;
5730;SDS011;2890;51.950;7.668;2023-05-07T04:22:52;24.87;;;21.97;;
5730;SDS011;2890;51.950;7.668;2023-05-07T04:25:19;25.37;;;22.70;;
5730;SDS011;2890;51.950;7.668;2023-05-07T04:27:45;29.57;;;23.07;;
5730;SDS011;2890;51.950;7.668;2023-05-07T04:30:12;23.63;;;21.23;;
5730;SDS011;2890;51.950;7.668;2023-05-07T04:32:41;24.70;;;22.20;;
5730;SDS011;2890;51.950;7.668;2023-05-07T04:35:09;25.47;;;22.80;;
5730;SDS011;2890;51.950;7.668;2023-05-07T04:37:36;25.50;;;22.90;;
5730;SDS011;2890;51.950;7.668;2023-05-07T04:40:02;24.63;;;22.13;;
5730;SDS011;2890;51.950;7.668;2023-05-07T04:42:29;27.23;;;21.90;;
5730;SDS011;2890;51.950;7.668;2023-05-07T04:44:56;26.53;;;23.60;;
5730;SDS011;2890;51.950;7.668;2023-05-07T04:47:22;25.30;;;22.77;;
5730;SDS011;2890;51.950;7.668;2023-05-07T04:49:50;26.30;;;22.70;;
5730;SDS011;2890;51.950;7.668;2023-05-07T04:52:16;23.30;;;20.80;;
5730;SDS011;2890;51.950;7.668;2023-05-07T04:54:43;25.30;;;22.70;;
5730;SDS011;2890;51.950;7.668;2023-05-07T04:57:10;27.10;;;21.90;;
5730;SDS011;2890;51.950;7.668;2023-05-07T04:59:37;28.00;;;21.37;;
5730;SDS011;2890;51.950;7.668;2023-05-07T05:02:03;26.23;;;23.23;;
5730;SDS011;2890;51.950;7.668;2023-05-07T05:04:30;26.00;;;23.20;;
5730;SDS011;2890;51.950;7.668;2023-05-07T05:06:58;23.57;;;21.17;;
5730;SDS011;2890;51.950;7.668;2023-05-07T05:09:24;26.00;;;23.30;;
5730;SDS011;2890;51.950;7.668;2023-05-07T05:11:54;24.80;;;22.30;;
5730;SDS011;2890;51.950;7.668;2023-05-07T05:14:20;24.80;;;22.10;;
5730;SDS011;2890;51.950;7.668;2023-05-07T05:16:47;25.30;;;21.77;;
5730;SDS011;2890;51.950;7.668;2023-05-07T05:19:13;25.17;;;22.57;;
5730;SDS011;2890;51.950;7.668;2023-05-07T05:21:40;28.43;;;23.40;;
5730;SDS011;2890;51.950;7.668;2023-05-07T05:24:08;23.20;;;20.60;;
5730;SDS011;2890;51.950;7.668;2023-05-07T05:26:34;22.87;;;20.63;;
5730;SDS011;2890;51.950;7.668;2023-05-07T05:29:01;24.30;;;21.70;;
5730;SDS011;2890;51.950;7.668;2023-05-07T05:31:27;24.13;;;21.73;;
5730;SDS011;2890;51.950;7.668;2023-05-07T05:33:55;23.83;;;21.43;;
5730;SDS011;2890;51.950;7.668;2023-05-07T05:36:21;22.93;;;20.47;;
5730;SDS011;2890;51.950;7.668;2023-05-07T05:38:48;24.27;;;21.70;;
5730;SDS011;2890;51.950;7.668;2023-05-07T05:41:17;23.73;;;21.23;;
5730;SDS011;2890;51.950;7.668;2023-05-07T05:43:43;24.37;;;21.77;;
5730;SDS011;2890;51.950;7.668;2023-05-07T05:46:11;25.33;;;22.67;;
5730;SDS011;2890;51.950;7.668;2023-05-07T05:48:37;24.03;;;21.60;;
5730;SDS011;2890;51.950;7.668;2023-05-07T05:51:04;25.20;;;21.10;;
5730;SDS011;2890;51.950;7.668;2023-05-07T05:53:30;25.30;;;22.70;;
5730;SDS011;2890;51.950;7.668;2023-05-07T05:55:57;23.87;;;21.30;;
5730;SDS011;2890;51.950;7.668;2023-05-07T05:58:24;24.10;;;21.77;;
5730;SDS011;2890;51.950;7.668;2023-05-07T06:00:51;24.47;;;21.97;;
5730;SDS011;2890;51.950;7.668;2023-05-07T06:03:18;24.13;;;21.63;;
5730;SDS011;2890;51.950;7.668;2023-05-07T06:05:44;25.37;;;22.33;;
5730;SDS011;2890;51.950;7.668;2023-05-07T06:08:11;24.20;;;21.80;;
5730;SDS011;2890;51.950;7.668;2023-05-07T06:10:37;24.90;;;22.33;;
5730;SDS011;2890;51.950;7.668;2023-05-07T06:13:04;26.13;;;22.83;;
5730;SDS011;2890;51.950;7.668;2023-05-07T06:15:32;23.67;;;21.27;;
5730;SDS011;2890;51.950;7.668;2023-05-07T06:17:58;26.60;;;21.47;;
5730;SDS011;2890;51.950;7.668;2023-05-07T06:20:25;32.27;;;21.90;;
5730;SDS011;2890;51.950;7.668;2023-05-07T06:22:51;24.30;;;21.70;;
5730;SDS011;2890;51.950;7.668;2023-05-07T06:25:19;27.90;;;22.70;;
5730;SDS011;2890;51.950;7.668;2023-05-07T06:27:45;24.70;;;21.93;;
5730;SDS011;2890;51.950;7.668;2023-05-07T06:30:12;26.17;;;23.37;;
5730;SDS011;2890;51.950;7.668;2023-05-07T06:32:40;26.47;;;23.03;;
5730;SDS011;2890;51.950;7.668;2023-05-07T06:35:07;27.47;;;22.90;;
5730;SDS011;2890;51.950;7.668;2023-05-07T06:37:34;24.90;;;22.40;;
5730;SDS011;2890;51.950;7.668;2023-05-07T06:40:03;27.23;;;22.30;;
5730;SDS011;2890;51.950;7.668;2023-05-07T06:42:31;27.43;;;22.93;;
5730;SDS011;2890;51.950;7.668;2023-05-07T06:44:57;25.10;;;21.40;;
5730;SDS011;2890;51.950;7.668;2023-05-07T06:47:24;23.70;;;21.27;;
5730;SDS011;2890;51.950;7.668;2023-05-07T06:49:51;25.27;;;22.23;;
5730;SDS011;2890;51.950;7.668;2023-05-07T06:52:18;26.27;;;23.43;;
5730;SDS011;2890;51.950;7.668;2023-05-07T06:54:44;24.57;;;21.90;;
5730;SDS011;2890;51.950;7.668;2023-05-07T06:57:11;25.67;;;22.33;;
5730;SDS011;2890;51.950;7.668;2023-05-07T06:59:37;26.83;;;21.67;;
5730;SDS011;2890;51.950;7.668;2023-05-07T07:02:04;24.07;;;21.53;;
5730;SDS011;2890;51.950;7.668;2023-05-07T07:04:30;25.63;;;22.93;;
5730;SDS011;2890;51.950;7.668;2023-05-07T07:06:58;24.40;;;21.87;;
5730;SDS011;2890;51.950;7.668;2023-05-07T07:09:24;26.20;;;22.27;;
5730;SDS011;2890;51.950;7.668;2023-05-07T07:11:51;25.83;;;23.07;;
5730;SDS011;2890;51.950;7.668;2023-05-07T07:14:17;25.17;;;22.40;;
5730;SDS011;2890;51.950;7.668;2023-05-07T07:16:44;24.57;;;21.87;;
5730;SDS011;2890;51.950;7.668;2023-05-07T07:19:11;27.37;;;22.43;;
5730;SDS011;2890;51.950;7.668;2023-05-07T07:21:40;27.07;;;22.87;;
5730;SDS011;2890;51.950;7.668;2023-05-07T07:24:08;28.03;;;23.20;;
5730;SDS011;2890;51.950;7.668;2023-05-07T07:26:34;25.73;;;22.23;;
5730;SDS011;2890;51.950;7.668;2023-05-07T07:29:01;24.63;;;22.03;;
5730;SDS011;2890;51.950;7.668;2023-05-07T07:31:27;27.17;;;22.50;;
5730;SDS011;2890;51.950;7.668;2023-05-07T07:33:54;25.50;;;22.23;;
5730;SDS011;2890;51.950;7.668;2023-05-07T07:36:20;26.73;;;23.73;;
5730;SDS011;2890;51.950;7.668;2023-05-07T07:38:46;25.30;;;22.60;;
5730;SDS011;2890;51.950;7.668;2023-05-07T07:41:14;27.57;;;23.90;;
5730;SDS011;2890;51.950;7.668;2023-05-07T07:43:41;23.83;;;21.33;;
5730;SDS011;2890;51.950;7.668;2023-05-07T07:46:07;25.90;;;22.13;;
5730;SDS011;2890;51.950;7.668;2023-05-07T07:48:34;23.73;;;21.13;;
5730;SDS011;2890;51.950;7.668;2023-05-07T07:51:01;24.63;;;22.03;;
5730;SDS011;2890;51.950;7.668;2023-05-07T07:53:27;23.47;;;21.17;;
5730;SDS011;2890;51.950;7.668;2023-05-07T07:55:54;23.87;;;21.47;;
5730;SDS011;2890;51.950;7.668;2023-05-07T07:58:22;22.77;;;20.57;;
5730;SDS011;2890;51.950;7.668;2023-05-07T08:00:49;22.87;;;20.60;;
5730;SDS011;2890;51.950;7.668;2023-05-07T08:03:16;24.03;;;21.60;;
5730;SDS011;2890;51.950;7.668;2023-05-07T08:05:42;23.37;;;20.90;;
5730;SDS011;2890;51.950;7.668;2023-05-07T08:08:09;23.23;;;20.70;;
5730;SDS011;2890;51.950;7.668;2023-05-07T08:10:35;23.27;;;20.93;;
5730;SDS011;2890;51.950;7.668;2023-05-07T08:13:04;21.93;;;19.80;;
5730;SDS011;2890;51.950;7.668;2023-05-07T08:15:32;22.60;;;20.40;;
5730;SDS011;2890;51.950;7.668;2023-05-07T08:17:58;23.33;;;20.87;;
5730;SDS011;2890;51.950;7.668;2023-05-07T08:20:25;22.87;;;20.37;;
5730;SDS011;2890;51.950;7.668;2023-05-07T08:22:52;24.43;;;22.00;;
5730;SDS011;2890;51.950;7.668;2023-05-07T08:25:18;22.33;;;19.53;;
5730;SDS011;2890;51.950;7.668;2023-05-07T08:27:45;22.80;;;20.20;;
5730;SDS011;2890;51.950;7.668;2023-05-07T08:30:12;30.73;;;19.57;;
5730;SDS011;2890;51.950;7.668;2023-05-07T08:32:40;23.03;;;19.30;;
5730;SDS011;2890;51.950;7.668;2023-05-07T08:35:07;21.23;;;19.23;;
5730;SDS011;2890;51.950;7.668;2023-05-07T08:37:34;23.00;;;20.60;;
5730;SDS011;2890;51.950;7.668;2023-05-07T08:40:01;21.47;;;19.40;;
5730;SDS011;2890;51.950;7.668;2023-05-07T08:42:27;22.77;;;20.40;;
5730;SDS011;2890;51.950;7.668;2023-05-07T08:44:54;22.97;;;20.00;;
5730;SDS011;2890;51.950;7.668;2023-05-07T08:47:25;22.90;;;20.40;;
5730;SDS011;2890;51.950;7.668;2023-05-07T08:49:55;22.83;;;20.63;;
5730;SDS011;2890;51.950;7.668;2023-05-07T08:52:22;22.40;;;20.10;;
5730;SDS011;2890;51.950;7.668;2023-05-07T08:54:48;21.70;;;19.70;;
5730;SDS011;2890;51.950;7.668;2023-05-07T08:57:15;22.77;;;20.40;;
5730;SDS011;2890;51.950;7.668;2023-05-07T08:59:41;21.00;;;18.80;;
5730;SDS011;2890;51.950;7.668;2023-05-07T09:02:09;22.03;;;19.73;;
5730;SDS011;2890;51.950;7.668;2023-05-07T09:04:36;20.20;;;18.30;;
5730;SDS011;2890;51.950;7.668;2023-05-07T09:07:04;22.60;;;20.20;;
5730;SDS011;2890;51.950;7.668;2023-05-07T09:09:31;20.97;;;18.77;;
5730;SDS011;2890;51.950;7.668;2023-05-07T09:11:58;22.90;;;19.23;;
5730;SDS011;2890;51.950;7.668;2023-05-07T09:14:25;20.30;;;18.23;;
5730;SDS011;2890;51.950;7.668;2023-05-07T09:16:51;21.83;;;19.73;;
5730;SDS011;2890;51.950;7.668;2023-05-07T09:19:21;20.43;;;18.23;;
5730;SDS011;2890;51.950;7.668;2023-05-07T09:21:48;20.77;;;18.77;;
5730;SDS011;2890;51.950;7.668;2023-05-07T09:24:16;20.90;;;18.63;;
5730;SDS011;2890;51.950;7.668;2023-05-07T09:26:43;19.53;;;17.53;;
5730;SDS011;2890;51.950;7.668;2023-05-07T09:29:09;19.77;;;17.87;;
5730;SDS011;2890;51.950;7.668;2023-05-07T09:31:36;18.97;;;17.17;;
5730;SDS011;2890;51.950;7.668;2023-05-07T09:34:04;19.60;;;17.60;;
5730;SDS011;2890;51.950;7.668;2023-05-07T09:36:31;18.40;;;16.70;;
5730;SDS011;2890;51.950;7.668;2023-05-07T09:38:58;19.63;;;17.90;;
5730;SDS011;2890;51.950;7.668;2023-05-07T09:41:26;19.30;;;17.40;;
5730;SDS011;2890;51.950;7.668;2023-05-07T09:43:54;18.67;;;16.77;;
5730;SDS011;2890;51.950;7.668;2023-05-07T09:46:20;17.43;;;15.93;;
5730;SDS011;2890;51.950;7.668;2023-05-07T09:48:52;18.30;;;16.67;;
5730;SDS011;2890;51.950;7.668;2023-05-07T09:51:21;19.83;;;16.90;;
5730;SDS011;2890;51.950;7.668;2023-05-07T09:53:51;18.23;;;16.67;;
5730;SDS011;2890;51.950;7.668;2023-05-07T09:56:18;17.73;;;16.13;;
5730;SDS011;2890;51.950;7.668;2023-05-07T09:58:47;19.07;;;17.13;;
5730;SDS011;2890;51.950;7.668;2023-05-07T10:01:15;17.57;;;15.87;;
5730;SDS011;2890;51.950;7.668;2023-05-07T10:03:44;19.27;;;17.47;;
5730;SDS011;2890;51.950;7.668;2023-05-07T10:06:11;17.67;;;16.17;;
5730;SDS011;2890;51.950;7.668;2023-05-07T10:08:39;17.77;;;16.27;;
5730;SDS011;2890;51.950;7.668;2023-05-07T10:11:06;15.67;;;14.47;;
5730;SDS011;2890;51.950;7.668;2023-05-07T10:13:32;17.47;;;15.67;;
5730;SDS011;2890;51.950;7.668;2023-05-07T10:16:02;18.37;;;16.67;;
5730;SDS011;2890;51.950;7.668;2023-05-07T10:18:29;15.80;;;14.50;;
5730;SDS011;2890;51.950;7.668;2023-05-07T10:20:58;15.43;;;14.23;;
5730;SDS011;2890;51.950;7.668;2023-05-07T10:23:28;17.20;;;15.80;;
5730;SDS011;2890;51.950;7.668;2023-05-07T10:25:55;17.60;;;16.10;;
5730;SDS011;2890;51.950;7.668;2023-05-07T10:28:22;15.90;;;14.70;;
5730;SDS011;2890;51.950;7.668;2023-05-07T10:30:54;15.13;;;13.93;;
5730;SDS011;2890;51.950;7.668;2023-05-07T10:33:28;15.80;;;14.50;;
5730;SDS011;2890;51.950;7.668;2023-05-07T10:35:55;15.40;;;13.80;;
5730;SDS011;2890;51.950;7.668;2023-05-07T10:38:24;15.27;;;14.07;;
5730;SDS011;2890;51.950;7.668;2023-05-07T10:40:51;15.00;;;13.80;;
5730;SDS011;2890;51.950;7.668;2023-05-07T10:43:18;16.17;;;14.80;;
5730;SDS011;2890;51.950;7.668;2023-05-07T10:45:46;16.13;;;14.83;;
5730;SDS011;2890;51.950;7.668;2023-05-07T10:48:39;15.37;;;14.27;;
5730;SDS011;2890;51.950;7.668;2023-05-07T10:51:36;14.80;;;13.63;;
5730;SDS011;2890;51.950;7.668;2023-05-07T10:54:22;14.00;;;12.97;;
5730;SDS011;2890;51.950;7.668;2023-05-07T10:56:49;14.60;;;13.40;;
5730;SDS011;2890;51.950;7.668;2023-05-07T10:59:32;14.00;;;13.00;;
5730;SDS011;2890;51.950;7.668;2023-05-07T11:02:05;13.17;;;12.23;;
5730;SDS011;2890;51.950;7.668;2023-05-07T11:04:35;16.20;;;14.80;;
5730;SDS011;2890;51.950;7.668;2023-05-07T11:07:25;14.87;;;13.57;;
5730;SDS011;2890;51.950;7.668;2023-05-07T11:10:02;13.97;;;12.67;;
5730;SDS011;2890;51.950;7.668;2023-05-07T11:18:04;14.90;;;13.40;;
5730;SDS011;2890;51.950;7.668;2023-05-07T11:26:41;12.50;;;11.60;;
5730;SDS011;2890;51.950;7.668;2023-05-07T11:29:13;13.27;;;12.17;;
5730;SDS011;2890;51.950;7.668;2023-05-07T11:31:40;13.00;;;12.00;;
5730;SDS011;2890;51.950;7.668;2023-05-07T11:34:07;13.23;;;12.13;;
5730;SDS011;2890;51.950;7.668;2023-05-07T11:36:35;12.93;;;11.63;;
5730;SDS011;2890;51.950;7.668;2023-05-07T11:39:02;12.70;;;11.60;;
5730;SDS011;2890;51.950;7.668;2023-05-07T11:41:35;11.47;;;10.63;;
5730;SDS011;2890;51.950;7.668;2023-05-07T11:44:02;10.37;;;9.63;;
5730;SDS011;2890;51.950;7.668;2023-05-07T11:46:29;12.33;;;11.37;;
5730;SDS011;2890;51.950;7.668;2023-05-07T11:48:55;13.23;;;12.13;;
5730;SDS011;2890;51.950;7.668;2023-05-07T11:51:23;10.50;;;9.80;;
5730;SDS011;2890;51.950;7.668;2023-05-07T11:53:52;11.13;;;10.33;;
5730;SDS011;2890;51.950;7.668;2023-05-07T11:56:19;9.90;;;9.10;;
5730;SDS011;2890;51.950;7.668;2023-05-07T11:58:46;10.10;;;9.40;;
5730;SDS011;2890;51.950;7.668;2023-05-07T12:01:14;10.97;;;10.00;;
5730;SDS011;2890;51.950;7.668;2023-05-07T12:03:42;10.67;;;9.77;;
5730;SDS011;2890;51.950;7.668;2023-05-07T12:06:10;10.53;;;9.70;;
5730;SDS011;2890;51.950;7.668;2023-05-07T12:08:37;11.60;;;10.70;;
5730;SDS011;2890;51.950;7.668;2023-05-07T12:11:07;11.30;;;10.40;;
5730;SDS011;2890;51.950;7.668;2023-05-07T12:13:35;10.10;;;9.30;;
5730;SDS011;2890;51.950;7.668;2023-05-07T12:16:01;11.43;;;10.00;;
5730;SDS011;2890;51.950;7.668;2023-05-07T12:18:29;10.23;;;9.43;;
5730;SDS011;2890;51.950;7.668;2023-05-07T12:20:55;10.50;;;9.70;;
5730;SDS011;2890;51.950;7.668;2023-05-07T12:23:22;8.33;;;7.80;;
5730;SDS011;2890;51.950;7.668;2023-05-07T12:25:49;9.20;;;8.60;;
5730;SDS011;2890;51.950;7.668;2023-05-07T12:28:17;10.77;;;9.70;;
5730;SDS011;2890;51.950;7.668;2023-05-07T12:30:45;10.30;;;9.30;;
5730;SDS011;2890;51.950;7.668;2023-05-07T12:33:13;9.67;;;8.97;;
5730;SDS011;2890;51.950;7.668;2023-05-07T12:35:42;8.80;;;8.17;;
5730;SDS011;2890;51.950;7.668;2023-05-07T12:38:09;10.27;;;9.47;;
5730;SDS011;2890;51.950;7.668;2023-05-07T12:40:37;9.20;;;8.60;;
5730;SDS011;2890;51.950;7.668;2023-05-07T12:43:04;8.33;;;7.73;;
5730;SDS011;2890;51.950;7.668;2023-05-07T12:45:32;10.40;;;9.60;;
5730;SDS011;2890;51.950;7.668;2023-05-07T12:48:03;10.10;;;9.30;;
5730;SDS011;2890;51.950;7.668;2023-05-07T12:50:31;12.37;;;11.30;;
5730;SDS011;2890;51.950;7.668;2023-05-07T12:52:58;11.83;;;10.87;;
5730;SDS011;2890;51.950;7.668;2023-05-07T12:55:25;10.90;;;10.00;;
5730;SDS011;2890;51.950;7.668;2023-05-07T12:57:52;10.07;;;9.27;;
5730;SDS011;2890;51.950;7.668;2023-05-07T13:00:33;11.90;;;10.90;;
5730;SDS011;2890;51.950;7.668;2023-05-07T13:03:00;11.23;;;10.10;;
5730;SDS011;2890;51.950;7.668;2023-05-07T13:05:26;11.00;;;10.20;;
5730;SDS011;2890;51.950;7.668;2023-05-07T13:07:53;10.60;;;9.70;;
5730;SDS011;2890;51.950;7.668;2023-05-07T13:10:21;11.33;;;10.53;;
5730;SDS011;2890;51.950;7.668;2023-05-07T13:12:47;11.50;;;10.50;;
5730;SDS011;2890;51.950;7.668;2023-05-07T13:15:14;11.13;;;9.77;;
5730;SDS011;2890;51.950;7.668;2023-05-07T13:17:42;9.97;;;9.17;;
5730;SDS011;2890;51.950;7.668;2023-05-07T13:20:09;10.60;;;9.80;;
5730;SDS011;2890;51.950;7.668;2023-05-07T13:22:36;10.73;;;9.83;;
5730;SDS011;2890;51.950;7.668;2023-05-07T13:25:02;10.13;;;9.17;;
5730;SDS011;2890;51.950;7.668;2023-05-07T13:27:29;9.60;;;8.80;;
5730;SDS011;2890;51.950;7.668;2023-05-07T13:29:56;9.47;;;8.87;;
5730;SDS011;2890;51.950;7.668;2023-05-07T13:32:23;10.50;;;9.70;;
5730;SDS011;2890;51.950;7.668;2023-05-07T13:34:51;9.20;;;8.50;;
5730;SDS011;2890;51.950;7.668;2023-05-07T13:37:17;9.87;;;9.17;;
5730;SDS011;2890;51.950;7.668;2023-05-07T13:39:43;10.03;;;9.23;;
5730;SDS011;2890;51.950;7.668;2023-05-07T13:42:10;10.27;;;9.37;;
5730;SDS011;2890;51.950;7.668;2023-05-07T13:44:37;9.63;;;8.93;;
5730;SDS011;2890;51.950;7.668;2023-05-07T13:47:03;10.37;;;9.40;;
5730;SDS011;2890;51.950;7.668;2023-05-07T13:49:30;9.90;;;8.10;;
5730;SDS011;2890;51.950;7.668;2023-05-07T13:51:58;11.40;;;10.30;;
5730;SDS011;2890;51.950;7.668;2023-05-07T13:54:25;10.43;;;9.60;;
5730;SDS011;2890;51.950;7.668;2023-05-07T13:56:51;10.03;;;9.23;;
5730;SDS011;2890;51.950;7.668;2023-05-07T13:59:17;10.33;;;9.40;;
5730;SDS011;2890;51.950;7.668;2023-05-07T14:01:44;9.67;;;8.77;;
5730;SDS011;2890;51.950;7.668;2023-05-07T14:04:10;10.37;;;9.37;;
5730;SDS011;2890;51.950;7.668;2023-05-07T14:06:37;9.50;;;8.80;;
5730;SDS011;2890;51.950;7.668;2023-05-07T14:09:05;9.40;;;8.70;;
5730;SDS011;2890;51.950;7.668;2023-05-07T14:11:35;9.97;;;9.03;;
5730;SDS011;2890;51.950;7.668;2023-05-07T14:14:01;9.40;;;8.60;;
5730;SDS011;2890;51.950;7.668;2023-05-07T14:16:28;11.10;;;8.30;;
5730;SDS011;2890;51.950;7.668;2023-05-07T14:18:54;9.73;;;8.73;;
5730;SDS011;2890;51.950;7.668;2023-05-07T14:21:21;8.83;;;8.13;;
5730;SDS011;2890;51.950;7.668;2023-05-07T14:23:47;10.10;;;9.20;;
5730;SDS011;2890;51.950;7.668;2023-05-07T14:26:15;8.53;;;7.93;;
5730;SDS011;2890;51.950;7.668;2023-05-07T14:28:42;9.60;;;8.90;;
5730;SDS011;2890;51.950;7.668;2023-05-07T14:31:11;8.50;;;7.90;;
5730;SDS011;2890;51.950;7.668;2023-05-07T14:33:37;9.20;;;8.53;;
5730;SDS011;2890;51.950;7.668;2023-05-07T14:36:04;9.97;;;9.27;;
5730;SDS011;2890;51.950;7.668;2023-05-07T14:38:31;9.90;;;9.00;;
5730;SDS011;2890;51.950;7.668;2023-05-07T14:40:58;8.60;;;8.10;;
5730;SDS011;2890;51.950;7.668;2023-05-07T14:43:27;9.10;;;8.40;;
5730;SDS011;2890;51.950;7.668;2023-05-07T14:45:53;7.53;;;7.03;;
5730;SDS011;2890;51.950;7.668;2023-05-07T14:48:20;8.10;;;7.60;;
5730;SDS011;2890;51.950;7.668;2023-05-07T14:50:46;7.47;;;6.87;;
5730;SDS011;2890;51.950;7.668;2023-05-07T14:53:13;7.73;;;6.93;;
5730;SDS011;2890;51.950;7.668;2023-05-07T14:55:39;9.00;;;8.20;;
5730;SDS011;2890;51.950;7.668;2023-05-07T14:58:06;8.17;;;7.57;;
5730;SDS011;2890;51.950;7.668;2023-05-07T15:00:34;7.17;;;6.60;;
5730;SDS011;2890;51.950;7.668;2023-05-07T15:03:03;8.50;;;7.50;;
5730;SDS011;2890;51.950;7.668;2023-05-07T15:05:31;7.30;;;6.70;;